createdAt,value
2023-01-26T00:01:23.999Z,12.90
2023-01-26T00:06:27.488Z,12.23
2023-01-26T00:11:31.381Z,12.20
2023-01-26T00:16:36.004Z,11.60
2023-01-26T00:21:39.411Z,7.27
2023-01-26T00:26:42.930Z,15.63
2023-01-26T00:31:47.758Z,13.27
2023-01-26T00:36:51.230Z,11.47
2023-01-26T00:42:10.972Z,7.60
2023-01-26T00:47:16.092Z,7.60
2023-01-26T00:52:19.477Z,9.03
2023-01-26T00:57:22.938Z,12.70
2023-01-26T01:02:27.871Z,10.90
2023-01-26T01:07:31.693Z,12.13
2023-01-26T01:12:36.767Z,13.77
2023-01-26T01:17:41.770Z,14.97
2023-01-26T01:22:45.126Z,15.23
2023-01-26T01:27:48.438Z,13.83
2023-01-26T01:32:53.581Z,13.57
2023-01-26T01:37:56.982Z,9.87
2023-01-26T01:43:00.307Z,8.83
2023-01-26T01:48:08.923Z,8.20
2023-01-26T01:53:18.738Z,11.20
2023-01-26T01:58:22.772Z,10.03
2023-01-26T02:03:29.977Z,11.77
2023-01-26T02:08:37.643Z,13.93
2023-01-26T02:13:43.245Z,13.47
2023-01-26T02:18:48.239Z,8.23
2023-01-26T02:24:06.597Z,11.30
2023-01-26T02:29:13.127Z,10.30
2023-01-26T02:34:19.736Z,11.20
2023-01-26T02:39:36.009Z,9.90
2023-01-26T02:44:42.884Z,8.53
2023-01-26T02:49:50.931Z,9.13
2023-01-26T02:55:13.801Z,11.70
2023-01-26T03:00:20.648Z,13.77
2023-01-26T03:05:25.366Z,11.87
2023-01-26T03:10:29.386Z,12.00
2023-01-26T03:15:43.819Z,10.93
2023-01-26T03:21:06.365Z,11.33
2023-01-26T03:26:28.130Z,7.03
2023-01-26T03:31:33.098Z,10.10
2023-01-26T03:36:37.968Z,8.70
2023-01-26T03:42:03.401Z,6.77
2023-01-26T03:47:26.019Z,8.63
2023-01-26T03:52:46.814Z,11.93
2023-01-26T03:57:51.297Z,9.97
2023-01-26T04:03:13.650Z,12.30
2023-01-26T04:08:27.716Z,10.13
2023-01-26T04:13:53.466Z,11.83
2023-01-26T04:19:24.192Z,11.17
2023-01-26T04:24:27.381Z,10.50
2023-01-26T04:29:33.282Z,10.50
2023-01-26T04:34:38.097Z,13.47
2023-01-26T04:39:48.985Z,13.47
2023-01-26T04:44:53.516Z,12.43
2023-01-26T04:49:59.199Z,8.13
2023-01-26T04:55:03.211Z,9.73
2023-01-26T05:00:10.967Z,13.13
2023-01-26T05:05:17.034Z,7.33
2023-01-26T05:10:21.918Z,11.03
2023-01-26T05:15:48.737Z,8.33
2023-01-26T05:21:16.819Z,10.70
2023-01-26T05:26:24.524Z,10.17
2023-01-26T05:31:38.905Z,13.63
2023-01-26T05:36:44.677Z,9.80
2023-01-26T05:41:48.748Z,12.70
2023-01-26T05:46:56.039Z,10.50
2023-01-26T05:52:01.216Z,8.43
2023-01-26T05:57:05.852Z,11.50
2023-01-26T06:02:13.858Z,8.20
2023-01-26T06:07:21.710Z,8.80
2023-01-26T06:12:43.219Z,13.40
2023-01-26T06:18:10.269Z,10.03
2023-01-26T06:23:15.459Z,7.73
2023-01-26T06:28:21.489Z,7.63
2023-01-26T06:33:25.017Z,6.87
2023-01-26T06:38:29.764Z,9.03
2023-01-26T06:43:34.610Z,7.03
2023-01-26T06:48:39.006Z,13.63
2023-01-26T06:53:45.447Z,7.27
2023-01-26T06:59:22.081Z,7.30
2023-01-26T07:04:51.363Z,7.17
2023-01-26T07:09:56.304Z,9.97
2023-01-26T07:14:59.558Z,9.50
2023-01-26T07:20:03.159Z,11.93
2023-01-26T07:25:08.863Z,6.90
2023-01-26T07:30:14.748Z,10.13
2023-01-26T07:35:18.833Z,9.70
2023-01-26T07:40:23.967Z,9.23
2023-01-26T07:45:27.593Z,7.30
2023-01-26T07:50:31.594Z,14.10
2023-01-26T07:55:36.595Z,9.47
2023-01-26T08:00:40.499Z,11.87
2023-01-26T08:05:44.484Z,8.20
2023-01-26T08:10:49.590Z,10.90
2023-01-26T08:15:52.945Z,10.37
2023-01-26T08:20:56.643Z,9.37
2023-01-26T08:26:04.237Z,9.30
2023-01-26T08:31:11.586Z,7.47
2023-01-26T08:36:16.824Z,10.40
2023-01-26T08:41:34.696Z,8.57
2023-01-26T08:46:38.120Z,6.43
2023-01-26T08:51:41.685Z,8.37
2023-01-26T08:56:46.500Z,10.60
2023-01-26T09:01:51.234Z,7.53
2023-01-26T09:06:54.741Z,10.80
2023-01-26T09:11:59.575Z,11.70
2023-01-26T09:17:03.272Z,17.10
2023-01-26T09:22:06.624Z,10.73
2023-01-26T09:27:11.487Z,8.33
2023-01-26T09:32:14.856Z,4.40
2023-01-26T09:37:18.758Z,3.83
2023-01-26T09:42:33.812Z,4.47
2023-01-26T09:47:54.831Z,3.47
2023-01-26T09:53:03.713Z,6.50
2023-01-26T09:58:16.722Z,18.00
2023-01-26T10:03:27.568Z,14.40
2023-01-26T10:08:31.770Z,5.20
2023-01-26T10:13:36.665Z,12.30
2023-01-26T10:18:51.445Z,11.93
2023-01-26T10:23:55.351Z,14.70
2023-01-26T10:29:00.761Z,10.27
2023-01-26T10:34:15.082Z,29.33
2023-01-26T10:39:19.641Z,8.70
2023-01-26T10:44:29.911Z,6.80
2023-01-26T10:49:33.613Z,6.87
2023-01-26T10:54:38.842Z,10.07
2023-01-26T10:59:47.861Z,7.10
2023-01-26T11:05:15.368Z,6.00
2023-01-26T11:10:28.473Z,6.87
2023-01-26T11:15:38.431Z,6.13
2023-01-26T11:20:48.950Z,2.90
2023-01-26T11:26:25.910Z,3.43
2023-01-26T11:31:42.560Z,6.47
2023-01-26T11:36:54.225Z,4.90
2023-01-26T11:42:14.886Z,4.30
2023-01-26T11:47:34.154Z,4.60
2023-01-26T11:52:47.448Z,3.70
2023-01-26T11:58:06.565Z,4.63
2023-01-26T12:03:22.279Z,3.70
2023-01-26T12:08:30.809Z,3.13
2023-01-26T12:13:39.300Z,5.80
2023-01-26T12:19:05.607Z,20.13
2023-01-26T12:24:43.477Z,5.30
2023-01-26T12:29:52.101Z,14.93
2023-01-26T12:34:56.842Z,7.37
2023-01-26T12:40:11.153Z,7.57
2023-01-26T12:45:19.689Z,9.13
2023-01-26T12:50:31.871Z,8.60
2023-01-26T12:55:42.135Z,9.73
2023-01-26T13:00:54.270Z,24.37
2023-01-26T13:06:02.083Z,11.30
2023-01-26T13:11:07.100Z,9.30
2023-01-26T13:16:33.107Z,9.73
2023-01-26T13:21:46.090Z,9.00
2023-01-26T13:26:51.807Z,10.23
2023-01-26T13:31:56.271Z,7.57
2023-01-26T13:37:10.187Z,11.67
2023-01-26T13:42:21.840Z,17.17
2023-01-26T13:47:31.341Z,25.33
2023-01-26T13:52:43.601Z,19.10
2023-01-26T13:57:49.574Z,26.30
2023-01-26T14:02:53.115Z,19.73
2023-01-26T14:07:57.874Z,22.10
2023-01-26T14:13:03.332Z,25.00
2023-01-26T14:18:06.850Z,24.47
2023-01-26T14:23:18.844Z,16.30
2023-01-26T14:28:23.760Z,34.20
2023-01-26T14:33:28.494Z,21.57
2023-01-26T14:38:44.104Z,32.57
2023-01-26T14:43:49.767Z,23.53
2023-01-26T14:49:01.233Z,28.23
2023-01-26T14:54:13.927Z,27.20
2023-01-26T14:59:23.452Z,19.57
2023-01-26T15:04:33.319Z,18.57
2023-01-26T15:09:38.164Z,15.17
2023-01-26T15:14:50.588Z,17.07
2023-01-26T15:19:53.891Z,14.00
2023-01-26T15:25:05.549Z,10.20
2023-01-26T15:30:18.388Z,8.07
2023-01-26T15:35:25.376Z,11.40
2023-01-26T15:40:30.416Z,12.80
2023-01-26T15:45:36.669Z,10.30
2023-01-26T15:50:40.229Z,17.13
2023-01-26T15:55:46.413Z,15.90
2023-01-26T16:00:50.884Z,14.90
2023-01-26T16:05:54.364Z,10.47
2023-01-26T16:10:59.734Z,13.13
2023-01-26T16:16:03.731Z,13.83
2023-01-26T16:21:18.134Z,13.17
2023-01-26T16:26:24.349Z,14.20
2023-01-26T16:31:30.376Z,11.80
2023-01-26T16:36:33.732Z,14.37
2023-01-26T16:41:38.401Z,17.80
2023-01-26T16:46:42.797Z,20.80
2023-01-26T16:51:46.802Z,10.97
2023-01-26T16:56:51.482Z,19.60
2023-01-26T17:01:55.758Z,13.37
2023-01-26T17:06:59.451Z,15.60
2023-01-26T17:12:04.659Z,14.77
2023-01-26T17:17:08.067Z,11.90
2023-01-26T17:22:11.400Z,11.50
2023-01-26T17:27:16.265Z,9.10
2023-01-26T17:32:25.273Z,11.57
2023-01-26T17:37:30.933Z,10.30
2023-01-26T17:42:36.379Z,8.23
2023-01-26T17:47:39.800Z,9.13
2023-01-26T17:52:43.094Z,13.60
2023-01-26T17:57:47.780Z,6.57
2023-01-26T18:02:51.129Z,14.93
2023-01-26T18:07:54.350Z,35.07
2023-01-26T18:12:59.216Z,27.77
2023-01-26T18:18:02.474Z,24.90
2023-01-26T18:23:05.720Z,22.00
2023-01-26T18:28:10.501Z,17.10
2023-01-26T18:33:13.977Z,16.53
2023-01-26T18:38:17.397Z,17.30
2023-01-26T18:43:22.116Z,26.77
2023-01-26T18:48:25.973Z,27.27
2023-01-26T18:53:29.804Z,25.97
2023-01-26T18:58:35.241Z,21.20
2023-01-26T19:03:40.212Z,23.70
2023-01-26T19:08:43.585Z,70.70
2023-01-26T19:13:48.927Z,116.37
2023-01-26T19:18:54.272Z,59.67
2023-01-26T19:23:59.955Z,74.17
2023-01-26T19:29:06.535Z,51.27
2023-01-26T19:34:14.431Z,23.03
2023-01-26T19:39:17.889Z,25.20
2023-01-26T19:44:24.251Z,24.57
2023-01-26T19:49:28.205Z,32.43
2023-01-26T19:54:32.044Z,28.80
2023-01-26T19:59:37.796Z,35.10
2023-01-26T20:04:41.664Z,30.97
2023-01-26T20:09:45.116Z,30.63
2023-01-26T20:14:51.723Z,26.47
2023-01-26T20:19:55.541Z,29.80
2023-01-26T20:25:01.008Z,31.63
2023-01-26T20:30:07.286Z,29.57
2023-01-26T20:35:14.283Z,27.60
2023-01-26T20:40:18.589Z,24.73
2023-01-26T20:45:25.187Z,28.53
2023-01-26T20:50:28.953Z,42.90
2023-01-26T20:55:33.154Z,26.43
2023-01-26T21:00:38.527Z,33.40
2023-01-26T21:05:41.956Z,38.90
2023-01-26T21:10:47.818Z,24.73
2023-01-26T21:15:54.117Z,24.70
2023-01-26T21:20:58.609Z,24.77
2023-01-26T21:26:05.607Z,22.03
2023-01-26T21:31:12.413Z,19.23
2023-01-26T21:36:17.115Z,25.57
2023-01-26T21:41:39.392Z,15.63
2023-01-26T21:46:45.934Z,25.37
2023-01-26T21:52:07.199Z,19.43
2023-01-26T21:57:26.199Z,17.30
2023-01-26T22:02:31.086Z,18.53
2023-01-26T22:07:34.304Z,22.27
2023-01-26T22:12:37.849Z,20.67
2023-01-26T22:17:42.877Z,29.77
2023-01-26T22:22:46.212Z,27.60
2023-01-26T22:27:49.611Z,22.53
2023-01-26T22:32:54.448Z,29.03
2023-01-26T22:37:57.819Z,22.40
2023-01-26T22:43:01.184Z,27.77
2023-01-26T22:48:06.974Z,26.70
2023-01-26T22:53:10.475Z,18.33
2023-01-26T22:58:14.036Z,22.60
2023-01-26T23:03:18.867Z,17.80
2023-01-26T23:08:22.210Z,22.93
2023-01-26T23:13:25.635Z,11.97
2023-01-26T23:18:30.809Z,15.17
2023-01-26T23:23:34.018Z,12.30
2023-01-26T23:28:39.257Z,16.67
2023-01-26T23:33:44.342Z,12.17
2023-01-26T23:38:47.587Z,21.43
2023-01-26T23:43:50.834Z,12.47
2023-01-26T23:48:55.958Z,14.27
2023-01-26T23:53:59.345Z,13.30
2023-01-26T23:59:02.679Z,14.43
